createdAt,value
2022-12-08T00:01:10.258Z,51.33
2022-12-08T00:03:36.925Z,51.53
2022-12-08T00:06:22.887Z,50.10
2022-12-08T00:09:07.701Z,50.45
2022-12-08T00:11:34.381Z,44.95
2022-12-08T00:14:00.970Z,44.97
2022-12-08T00:16:27.458Z,50.17
2022-12-08T00:18:54.471Z,45.60
2022-12-08T00:21:21.030Z,44.63
2022-12-08T00:23:47.494Z,42.85
2022-12-08T00:26:13.940Z,42.05
2022-12-08T00:28:40.445Z,42.17
2022-12-08T00:31:07.722Z,42.65
2022-12-08T00:33:34.106Z,43.05
2022-12-08T00:36:05.930Z,48.75
2022-12-08T00:40:58.750Z,44.78
2022-12-08T00:43:25.275Z,47.20
2022-12-08T00:45:51.783Z,46.25
2022-12-08T00:48:18.285Z,48.42
2022-12-08T00:50:44.777Z,41.60
2022-12-08T00:53:11.226Z,39.75
2022-12-08T00:55:37.646Z,46.28
2022-12-08T00:58:04.089Z,45.17
2022-12-08T01:00:30.560Z,42.45
2022-12-08T01:02:57.073Z,38.10
2022-12-08T01:05:23.529Z,42.20
2022-12-08T01:07:50.053Z,36.30
2022-12-08T01:10:16.694Z,37.15
2022-12-08T01:12:43.129Z,43.80
2022-12-08T01:15:09.892Z,35.97
2022-12-08T01:17:37.645Z,43.70
2022-12-08T01:20:05.553Z,41.53
2022-12-08T01:22:33.450Z,44.05
2022-12-08T01:24:59.869Z,49.50
2022-12-08T01:27:26.279Z,45.20
2022-12-08T01:29:52.708Z,40.50
2022-12-08T01:32:19.143Z,43.08
2022-12-08T01:34:45.678Z,52.05
2022-12-08T01:37:12.734Z,48.17
2022-12-08T01:39:41.282Z,52.85
2022-12-08T01:42:18.494Z,49.95
2022-12-08T01:44:44.971Z,47.08
2022-12-08T01:47:11.880Z,49.67
2022-12-08T01:49:38.329Z,53.53
2022-12-08T01:52:16.737Z,60.92
2022-12-08T01:54:45.939Z,54.90
2022-12-08T01:57:21.579Z,59.15
2022-12-08T01:59:54.482Z,55.53
2022-12-08T02:02:21.053Z,49.03
2022-12-08T02:04:47.558Z,48.35
2022-12-08T02:07:15.068Z,57.58
2022-12-08T02:09:41.757Z,59.83
2022-12-08T02:12:09.086Z,56.45
2022-12-08T02:14:35.766Z,49.63
2022-12-08T02:17:37.772Z,46.70
2022-12-08T02:20:07.219Z,47.60
2022-12-08T02:22:40.208Z,45.20
2022-12-08T02:25:17.092Z,45.88
2022-12-08T02:27:55.327Z,41.80
2022-12-08T02:30:21.822Z,43.95
2022-12-08T02:33:06.662Z,34.15
2022-12-08T02:35:33.059Z,32.90
2022-12-08T02:38:06.022Z,30.30
2022-12-08T02:40:51.257Z,27.02
2022-12-08T02:43:28.129Z,31.05
2022-12-08T02:46:00.480Z,24.80
2022-12-08T02:48:28.318Z,25.08
2022-12-08T02:50:54.929Z,25.27
2022-12-08T02:53:21.425Z,23.15
2022-12-08T02:56:17.174Z,23.35
2022-12-08T02:58:46.361Z,20.27
2022-12-08T03:01:27.795Z,33.15
2022-12-08T03:04:06.006Z,28.70
2022-12-08T03:06:42.516Z,32.60
2022-12-08T03:09:18.883Z,35.75
2022-12-08T03:11:49.741Z,34.28
2022-12-08T03:14:17.558Z,32.92
2022-12-08T03:16:45.751Z,32.65
2022-12-08T03:19:15.662Z,30.63
2022-12-08T03:21:44.369Z,30.30
2022-12-08T03:24:11.296Z,29.33
2022-12-08T03:26:43.501Z,29.20
2022-12-08T03:29:10.475Z,34.38
2022-12-08T03:31:39.708Z,33.92
2022-12-08T03:34:06.486Z,30.90
2022-12-08T03:36:32.925Z,32.20
2022-12-08T03:38:59.959Z,33.92
2022-12-08T03:41:27.017Z,33.72
2022-12-08T03:43:58.540Z,38.70
2022-12-08T03:48:51.657Z,33.03
2022-12-08T03:51:18.426Z,31.50
2022-12-08T03:53:45.208Z,31.23
2022-12-08T03:56:15.641Z,30.83
2022-12-08T03:58:42.665Z,29.95
2022-12-08T04:01:09.087Z,32.92
2022-12-08T04:03:35.576Z,24.55
2022-12-08T04:06:02.025Z,26.63
2022-12-08T04:08:28.464Z,29.40
2022-12-08T04:10:54.927Z,27.65
2022-12-08T04:13:21.334Z,21.15
2022-12-08T04:15:48.212Z,26.48
2022-12-08T04:18:14.757Z,27.90
2022-12-08T04:20:44.958Z,27.45
2022-12-08T04:23:12.240Z,25.27
2022-12-08T04:25:39.189Z,33.00
2022-12-08T04:28:06.096Z,32.38
2022-12-08T04:30:32.780Z,36.72
2022-12-08T04:32:59.290Z,36.75
2022-12-08T04:35:25.830Z,34.75
2022-12-08T04:37:52.387Z,35.88
2022-12-08T04:40:18.995Z,34.85
2022-12-08T04:42:46.537Z,33.47
2022-12-08T04:45:12.991Z,32.30
2022-12-08T04:47:39.369Z,32.47
2022-12-08T04:50:06.687Z,33.58
2022-12-08T04:52:33.324Z,29.85
2022-12-08T04:54:59.786Z,33.60
2022-12-08T04:57:26.433Z,32.88
2022-12-08T04:59:52.944Z,30.63
2022-12-08T05:02:19.655Z,33.08
2022-12-08T05:04:46.220Z,30.38
2022-12-08T05:07:12.748Z,36.60
2022-12-08T05:09:39.177Z,37.45
2022-12-08T05:12:05.677Z,37.08
2022-12-08T05:14:32.175Z,36.13
2022-12-08T05:16:58.780Z,40.95
2022-12-08T05:19:25.286Z,47.40
2022-12-08T05:21:51.759Z,46.60
2022-12-08T05:24:18.181Z,51.85
2022-12-08T05:26:44.646Z,49.65
2022-12-08T05:29:11.147Z,60.15
2022-12-08T05:31:37.690Z,52.85
2022-12-08T05:34:04.199Z,53.05
2022-12-08T05:36:30.649Z,52.35
2022-12-08T05:38:57.880Z,51.40
2022-12-08T05:41:24.701Z,52.30
2022-12-08T05:43:51.150Z,56.05
2022-12-08T05:46:17.911Z,50.65
2022-12-08T05:48:44.480Z,51.17
2022-12-08T05:51:20.967Z,48.85
2022-12-08T05:53:47.951Z,54.03
2022-12-08T05:56:14.573Z,48.40
2022-12-08T05:58:40.995Z,50.13
2022-12-08T06:01:07.626Z,53.22
2022-12-08T06:03:34.194Z,50.85
2022-12-08T06:06:00.674Z,53.35
2022-12-08T06:08:27.147Z,55.28
2022-12-08T06:10:53.565Z,52.33
2022-12-08T06:13:19.997Z,53.17
2022-12-08T06:15:46.371Z,58.05
2022-12-08T06:18:12.869Z,57.30
2022-12-08T06:20:39.360Z,58.05
2022-12-08T06:23:05.795Z,56.75
2022-12-08T06:25:32.217Z,52.05
2022-12-08T06:27:58.642Z,53.85
2022-12-08T06:30:25.170Z,56.30
2022-12-08T06:32:51.593Z,57.28
2022-12-08T06:35:18.094Z,61.63
2022-12-08T06:37:44.753Z,64.90
2022-12-08T06:40:11.605Z,65.47
2022-12-08T06:42:44.478Z,63.22
2022-12-08T06:45:11.585Z,62.85
2022-12-08T06:47:38.005Z,64.60
2022-12-08T06:50:05.150Z,68.82
2022-12-08T06:52:31.917Z,82.72
2022-12-08T06:54:58.359Z,69.88
2022-12-08T06:57:25.709Z,70.53
2022-12-08T06:59:52.186Z,66.88
2022-12-08T07:02:18.698Z,63.83
2022-12-08T07:04:45.277Z,60.58
2022-12-08T07:07:11.885Z,55.03
2022-12-08T07:09:38.378Z,54.60
2022-12-08T07:12:05.062Z,54.08
2022-12-08T07:14:31.492Z,57.97
2022-12-08T07:16:58.032Z,53.22
2022-12-08T07:19:24.594Z,49.95
2022-12-08T07:21:51.010Z,52.90
2022-12-08T07:24:17.457Z,53.65
2022-12-08T07:26:44.274Z,64.53
2022-12-08T07:29:10.973Z,60.55
2022-12-08T07:31:37.504Z,72.40
2022-12-08T07:34:04.108Z,60.35
2022-12-08T07:36:30.596Z,57.10
2022-12-08T07:38:57.080Z,57.90
2022-12-08T07:41:24.591Z,52.75
2022-12-08T07:43:51.737Z,58.65
2022-12-08T07:46:19.356Z,53.65
2022-12-08T07:48:46.342Z,54.70
2022-12-08T07:51:13.809Z,48.83
2022-12-08T07:53:42.660Z,57.15
2022-12-08T07:56:10.666Z,62.13
2022-12-08T07:58:37.170Z,53.22
2022-12-08T08:01:04.193Z,48.50
2022-12-08T08:03:31.133Z,50.17
2022-12-08T08:06:04.302Z,49.30
2022-12-08T08:08:30.840Z,59.03
2022-12-08T08:10:57.728Z,49.55
2022-12-08T08:13:24.155Z,49.03
2022-12-08T08:15:50.702Z,51.47
2022-12-08T08:18:17.309Z,46.30
2022-12-08T08:20:43.707Z,46.78
2022-12-08T08:23:10.140Z,49.05
2022-12-08T08:25:36.546Z,49.67
2022-12-08T08:28:03.022Z,46.40
2022-12-08T08:30:29.467Z,38.97
2022-12-08T08:32:55.888Z,36.88
2022-12-08T08:35:22.332Z,36.75
2022-12-08T08:37:49.523Z,40.05
2022-12-08T08:40:16.626Z,39.53
2022-12-08T08:42:43.134Z,39.42
2022-12-08T08:45:09.791Z,37.63
2022-12-08T08:47:36.302Z,39.95
2022-12-08T08:50:03.787Z,42.60
2022-12-08T08:52:31.002Z,44.75
2022-12-08T08:54:57.399Z,50.67
2022-12-08T08:57:26.057Z,44.97
2022-12-08T08:59:53.178Z,44.83
2022-12-08T09:02:20.201Z,42.20
2022-12-08T09:04:47.001Z,43.85
2022-12-08T09:07:14.539Z,45.97
2022-12-08T09:09:40.997Z,36.40
2022-12-08T09:12:07.773Z,33.95
2022-12-08T09:14:34.533Z,40.25
2022-12-08T09:17:01.192Z,44.85
2022-12-08T09:19:27.782Z,44.17
2022-12-08T09:21:54.232Z,42.92
2022-12-08T09:24:20.747Z,47.60
2022-12-08T09:26:47.278Z,48.35
2022-12-08T09:29:15.010Z,42.15
2022-12-08T09:31:41.935Z,53.47
2022-12-08T09:34:08.529Z,49.78
2022-12-08T09:36:35.007Z,54.97
2022-12-08T09:39:01.507Z,59.78
2022-12-08T09:58:22.156Z,62.45
2022-12-08T10:11:00.132Z,60.25
2022-12-08T11:09:01.595Z,132.23
2022-12-08T11:14:30.437Z,95.97
2022-12-08T11:17:06.973Z,88.53
2022-12-08T11:19:36.753Z,113.20
2022-12-08T11:22:20.136Z,128.05
2022-12-08T11:24:47.416Z,97.82
2022-12-08T11:27:13.846Z,97.43
2022-12-08T11:29:40.980Z,102.03
2022-12-08T11:32:13.858Z,98.43
2022-12-08T11:34:43.033Z,104.13
2022-12-08T11:37:14.746Z,118.50
2022-12-08T11:39:45.097Z,107.43
2022-12-08T11:42:13.277Z,109.35
2022-12-08T11:44:45.536Z,112.60
2022-12-08T11:47:16.926Z,103.28
2022-12-08T11:49:44.690Z,111.47
2022-12-08T11:52:20.077Z,114.63
2022-12-08T11:54:57.353Z,105.15
2022-12-08T11:57:24.563Z,101.55
2022-12-08T11:59:52.206Z,112.18
2022-12-08T12:02:26.391Z,112.43
2022-12-08T12:05:05.637Z,107.80
2022-12-08T12:07:32.120Z,103.97
2022-12-08T12:10:14.776Z,110.32
2022-12-08T12:12:41.367Z,107.70
2022-12-08T12:15:17.434Z,108.47
2022-12-08T12:17:46.540Z,106.45
2022-12-08T12:20:19.375Z,106.43
2022-12-08T12:22:48.085Z,111.00
2022-12-08T12:25:22.725Z,105.10
2022-12-08T12:27:50.376Z,100.32
2022-12-08T12:30:40.447Z,108.20
2022-12-08T12:33:11.928Z,101.18
2022-12-08T12:35:42.616Z,99.15
2022-12-08T12:38:36.762Z,101.10
2022-12-08T12:41:05.335Z,94.15
2022-12-08T12:43:33.389Z,90.57
2022-12-08T12:46:18.342Z,95.85
2022-12-08T12:48:45.548Z,232.90
2022-12-08T12:51:30.722Z,215.52
2022-12-08T12:54:17.131Z,161.88
2022-12-08T12:56:48.310Z,166.15
2022-12-08T12:59:33.859Z,333.45
2022-12-08T13:02:02.594Z,463.40
2022-12-08T13:04:34.380Z,487.73
2022-12-08T13:07:00.983Z,374.98
2022-12-08T13:09:30.905Z,219.50
2022-12-08T13:11:59.217Z,153.77
2022-12-08T13:14:31.186Z,125.95
2022-12-08T13:19:25.392Z,128.48
2022-12-08T13:21:51.973Z,119.30
2022-12-08T13:24:24.478Z,109.65
2022-12-08T13:27:06.119Z,99.05
2022-12-08T13:29:33.887Z,102.43
2022-12-08T13:32:01.045Z,106.95
2022-12-08T13:34:30.979Z,123.03
2022-12-08T13:37:00.201Z,115.38
2022-12-08T13:39:33.102Z,124.97
2022-12-08T13:42:06.414Z,128.38
2022-12-08T13:45:18.613Z,133.43
2022-12-08T13:47:34.455Z,143.70
2022-12-08T13:56:59.623Z,196.75
2022-12-08T13:58:46.735Z,130.82
2022-12-08T14:01:13.216Z,127.35
2022-12-08T14:04:30.870Z,122.55
2022-12-08T14:06:45.539Z,188.13
2022-12-08T14:09:15.050Z,152.02
2022-12-08T14:11:47.802Z,137.38
2022-12-08T14:14:27.236Z,140.75
2022-12-08T14:17:03.541Z,133.55
2022-12-08T14:19:32.099Z,157.95
2022-12-08T14:21:59.995Z,123.20
2022-12-08T14:24:28.468Z,139.05
2022-12-08T14:27:06.175Z,167.10
2022-12-08T14:29:48.460Z,155.85
2022-12-08T14:32:30.412Z,138.30
2022-12-08T14:35:12.226Z,150.73
2022-12-08T14:37:41.297Z,157.38
2022-12-08T14:40:23.560Z,135.23
2022-12-08T15:16:27.825Z,111.80
2022-12-08T15:19:23.316Z,115.63
2022-12-08T15:21:51.754Z,534.22
2022-12-08T15:24:19.546Z,252.48
2022-12-08T15:26:49.886Z,159.35
2022-12-08T19:40:22.322Z,232.45
2022-12-08T19:43:08.628Z,282.70
2022-12-08T19:45:35.809Z,207.35
2022-12-08T19:48:03.107Z,182.88
2022-12-08T19:50:38.914Z,333.23
2022-12-08T19:53:14.841Z,235.52
2022-12-08T19:55:42.534Z,191.55
2022-12-08T19:58:10.012Z,268.77
2022-12-08T20:00:37.446Z,253.00
2022-12-08T20:03:04.991Z,230.98
2022-12-08T20:05:32.242Z,282.20
2022-12-08T20:08:00.202Z,228.68
2022-12-08T20:10:28.262Z,213.55
2022-12-08T20:13:16.647Z,255.50
2022-12-08T20:15:43.375Z,219.27
2022-12-08T20:18:12.685Z,204.80
2022-12-08T20:20:39.593Z,202.02
2022-12-08T20:23:12.888Z,244.20
2022-12-08T20:25:40.385Z,222.18
2022-12-08T20:28:06.830Z,206.60
2022-12-08T20:30:34.654Z,213.98
2022-12-08T20:33:01.949Z,224.65
2022-12-08T20:35:28.383Z,278.25
2022-12-08T20:37:55.715Z,259.83
2022-12-08T20:40:22.213Z,420.65
2022-12-08T20:42:49.669Z,347.10
2022-12-08T20:45:16.127Z,196.40
2022-12-08T20:47:42.542Z,223.05
2022-12-08T20:50:11.039Z,357.40
2022-12-08T20:52:40.616Z,299.65
2022-12-08T20:55:10.626Z,216.63
2022-12-08T20:57:37.192Z,195.43
2022-12-08T21:00:06.065Z,290.90
2022-12-08T21:02:33.049Z,309.05
2022-12-08T21:05:00.770Z,216.25
2022-12-08T21:07:27.295Z,220.65
2022-12-08T21:09:55.703Z,190.82
2022-12-08T21:12:22.208Z,213.80
2022-12-08T21:14:49.670Z,317.75
2022-12-08T21:17:17.057Z,206.63
2022-12-08T21:19:45.094Z,249.07
2022-12-08T21:22:11.676Z,268.05
2022-12-08T21:24:39.502Z,227.82
2022-12-08T21:27:06.109Z,234.15
2022-12-08T21:29:33.365Z,219.52
2022-12-08T21:32:00.868Z,222.73
2022-12-08T21:34:37.726Z,237.38
2022-12-08T21:37:04.362Z,216.88
2022-12-08T21:39:31.115Z,229.52
2022-12-08T21:42:18.801Z,250.40
2022-12-08T21:44:48.971Z,203.10
2022-12-08T21:47:15.984Z,241.55
2022-12-08T21:49:43.458Z,213.73
2022-12-08T21:52:10.109Z,219.77
2022-12-08T21:54:37.566Z,182.07
2022-12-08T21:57:04.158Z,218.20
2022-12-08T21:59:31.533Z,267.45
2022-12-08T22:01:58.142Z,243.05
2022-12-08T22:04:26.157Z,222.40
2022-12-08T22:06:52.989Z,244.20
2022-12-08T22:09:20.532Z,254.70
2022-12-08T22:11:47.268Z,297.92
2022-12-08T22:14:15.628Z,243.20
2022-12-08T22:16:46.011Z,277.77
2022-12-08T22:19:15.366Z,298.60
2022-12-08T22:21:42.841Z,225.75
2022-12-08T22:24:10.386Z,270.67
2022-12-08T22:26:36.793Z,274.13
2022-12-08T22:29:04.112Z,274.55
2022-12-08T22:31:30.628Z,281.02
2022-12-08T22:33:59.929Z,256.92
2022-12-08T22:36:26.984Z,255.68
2022-12-08T22:38:53.938Z,259.88
2022-12-08T22:41:21.451Z,273.70
2022-12-08T22:43:48.211Z,297.75
2022-12-08T22:46:23.400Z,309.00
2022-12-08T22:48:50.138Z,329.52
2022-12-08T22:51:17.486Z,324.33
2022-12-08T22:53:44.224Z,301.30
2022-12-08T22:56:12.705Z,288.23
2022-12-08T22:58:40.056Z,284.30
2022-12-08T23:01:08.505Z,265.33
2022-12-08T23:03:35.406Z,215.90
2022-12-08T23:06:03.054Z,230.85
2022-12-08T23:08:29.695Z,218.23
2022-12-08T23:10:56.944Z,205.15
2022-12-08T23:13:23.510Z,217.45
2022-12-08T23:15:50.650Z,180.45
2022-12-08T23:18:21.225Z,175.32
2022-12-08T23:20:48.701Z,197.55
2022-12-08T23:23:15.498Z,196.88
2022-12-08T23:25:43.273Z,186.18
2022-12-08T23:28:09.919Z,198.98
2022-12-08T23:30:39.687Z,200.80
2022-12-08T23:33:06.274Z,164.90
2022-12-08T23:35:33.184Z,185.50
2022-12-08T23:37:59.827Z,159.95
2022-12-08T23:40:26.411Z,188.35
2022-12-08T23:42:53.040Z,183.20
2022-12-08T23:45:19.498Z,159.90
2022-12-08T23:47:46.046Z,162.68
